createdAt,value
2022-11-16T12:26:07.757Z,23776.00
2022-11-16T12:27:07.732Z,23264.00
2022-11-16T12:28:07.687Z,23424.00
2022-11-16T12:29:07.666Z,23072.00
2022-11-16T12:30:07.662Z,22720.00
2022-11-16T12:31:07.626Z,21184.00
2022-11-16T12:32:33.487Z,23392.00
2022-11-16T12:33:33.741Z,22976.00
2022-11-16T12:34:33.433Z,22624.00
2022-11-16T12:35:33.423Z,22048.00
2022-11-16T12:36:33.393Z,22624.00
2022-11-16T12:37:33.391Z,22368.00
2022-11-16T12:38:33.368Z,22240.00
2022-11-16T12:39:33.352Z,22592.00
2022-11-16T12:40:33.317Z,22304.00
2022-11-16T12:41:33.377Z,21856.00
2022-11-16T12:42:33.295Z,21696.00
2022-11-16T12:43:33.639Z,21888.00
2022-11-16T12:44:33.257Z,22080.00
2022-11-16T12:45:33.237Z,20416.00
2022-11-16T12:46:41.162Z,22336.00
2022-11-16T12:49:58.393Z,22144.00
2022-11-16T12:50:58.358Z,22688.00
2022-11-16T12:51:58.334Z,23520.00
2022-11-16T12:52:58.330Z,24928.00
2022-11-16T12:53:58.298Z,25056.00
2022-11-16T12:55:24.640Z,22592.00
2022-11-16T12:55:58.272Z,16768.00
2022-11-16T13:08:58.774Z,11484.00
2022-11-16T13:09:58.660Z,21440.00
2022-11-16T13:10:58.660Z,18880.00
2022-11-16T13:11:58.667Z,17984.00
2022-11-16T13:13:21.890Z,17600.00
2022-11-16T13:13:58.992Z,16192.00
2022-11-16T13:28:03.364Z,9696.00
2022-11-16T13:29:03.258Z,9476.00
2022-11-16T13:30:03.229Z,10720.00
2022-11-16T13:31:03.216Z,8968.00
2022-11-16T13:32:03.205Z,11392.00
2022-11-16T13:33:03.192Z,11796.00
